createdAt,value
2018-03-11T00:00:31.653Z,11.43
2018-03-11T00:02:35.721Z,11.00
2018-03-11T00:04:40.108Z,12.57
2018-03-11T00:06:43.658Z,11.40
2018-03-11T00:08:47.190Z,11.97
2018-03-11T00:10:50.795Z,14.27
2018-03-11T00:12:54.328Z,12.53
2018-03-11T00:14:57.871Z,14.07
2018-03-11T00:17:01.457Z,11.63
2018-03-11T00:19:05.036Z,13.00
2018-03-11T00:21:09.352Z,16.43
2018-03-11T00:23:12.972Z,18.90
2018-03-11T00:25:16.534Z,14.37
2018-03-11T00:27:20.894Z,12.33
2018-03-11T00:29:24.441Z,12.77
2018-03-11T00:31:27.979Z,14.03
2018-03-11T00:33:31.610Z,14.03
2018-03-11T00:35:35.117Z,16.17
2018-03-11T00:37:38.708Z,17.50
2018-03-11T00:39:42.284Z,12.23
2018-03-11T00:41:45.812Z,18.50
2018-03-11T00:43:50.136Z,13.67
2018-03-11T00:45:54.487Z,14.30
2018-03-11T00:47:58.014Z,15.37
2018-03-11T00:50:01.587Z,15.30
2018-03-11T00:52:05.180Z,23.13
2018-03-11T00:54:09.485Z,14.20
2018-03-11T00:56:13.083Z,18.10
2018-03-11T00:58:16.600Z,14.97
2018-03-11T01:00:20.149Z,16.93
2018-03-11T01:02:24.495Z,19.63
2018-03-11T01:04:28.099Z,14.67
2018-03-11T01:06:31.663Z,14.87
2018-03-11T01:08:35.216Z,15.47
2018-03-11T01:10:38.785Z,15.83
2018-03-11T01:12:42.334Z,15.67
2018-03-11T01:14:46.609Z,13.90
2018-03-11T01:16:50.961Z,21.60
2018-03-11T01:18:55.280Z,15.50
2018-03-11T01:20:58.856Z,15.53
2018-03-11T01:23:03.252Z,15.40
2018-03-11T01:25:06.814Z,22.33
2018-03-11T01:27:10.357Z,19.27
2018-03-11T01:29:13.896Z,13.67
2018-03-11T01:31:17.493Z,14.73
2018-03-11T01:33:21.048Z,14.83
2018-03-11T01:35:25.349Z,13.60
2018-03-11T01:37:28.956Z,13.67
2018-03-11T01:39:32.508Z,13.93
2018-03-11T01:41:36.058Z,22.03
2018-03-11T01:43:40.436Z,23.00
2018-03-11T01:45:43.972Z,19.23
2018-03-11T01:47:48.314Z,14.33
2018-03-11T01:49:51.877Z,20.70
2018-03-11T01:51:55.382Z,19.47
2018-03-11T01:53:59.739Z,19.43
2018-03-11T01:56:03.246Z,19.77
2018-03-11T01:58:06.807Z,15.87
2018-03-11T02:00:10.413Z,13.93
2018-03-11T02:02:13.950Z,16.20
2018-03-11T02:04:17.539Z,18.23
2018-03-11T02:06:21.136Z,16.30
2018-03-11T02:08:24.708Z,14.30
2018-03-11T02:10:28.228Z,14.00
2018-03-11T02:12:31.801Z,14.77
2018-03-11T02:14:35.381Z,14.77
2018-03-11T02:16:38.974Z,14.63
2018-03-11T02:18:42.516Z,18.30
2018-03-11T02:20:46.862Z,18.10
2018-03-11T02:22:51.234Z,19.03
2018-03-11T02:24:54.753Z,14.27
2018-03-11T02:26:58.364Z,14.70
2018-03-11T02:29:02.742Z,18.53
2018-03-11T02:31:06.295Z,20.57
2018-03-11T02:33:09.932Z,14.07
2018-03-11T02:35:13.506Z,13.90
2018-03-11T02:37:17.052Z,14.63
2018-03-11T02:39:20.607Z,14.97
2018-03-11T02:41:24.168Z,14.70
2018-03-11T02:43:27.755Z,21.97
2018-03-11T02:45:39.996Z,14.67
2018-03-11T02:47:45.528Z,13.40
2018-03-11T02:49:49.137Z,14.97
2018-03-11T02:51:52.642Z,19.67
2018-03-11T02:53:56.205Z,18.50
2018-03-11T02:55:59.767Z,17.03
2018-03-11T02:58:03.323Z,14.33
2018-03-11T03:00:06.958Z,16.77
2018-03-11T03:02:11.264Z,14.67
2018-03-11T03:04:14.803Z,20.63
2018-03-11T03:06:18.359Z,13.70
2018-03-11T03:08:21.920Z,14.90
2018-03-11T03:10:25.486Z,15.57
2018-03-11T03:12:29.098Z,16.97
2018-03-11T03:14:32.656Z,18.20
2018-03-11T03:16:36.236Z,18.53
2018-03-11T03:18:39.719Z,13.93
2018-03-11T03:20:43.269Z,13.70
2018-03-11T03:22:46.871Z,18.80
2018-03-11T03:24:50.422Z,19.40
2018-03-11T03:26:54.735Z,16.53
2018-03-11T03:28:59.087Z,18.23
2018-03-11T03:31:02.626Z,18.33
2018-03-11T03:33:06.197Z,17.77
2018-03-11T03:35:09.744Z,14.37
2018-03-11T03:37:14.095Z,17.17
2018-03-11T03:39:17.655Z,16.77
2018-03-11T03:41:21.206Z,19.33
2018-03-11T03:43:24.779Z,19.57
2018-03-11T03:45:28.337Z,15.70
2018-03-11T03:47:32.690Z,13.90
2018-03-11T03:49:36.285Z,13.97
2018-03-11T03:51:39.828Z,14.80
2018-03-11T03:53:43.423Z,19.37
2018-03-11T03:55:47.034Z,15.70
2018-03-11T03:57:50.579Z,17.63
2018-03-11T03:59:54.151Z,12.97
2018-03-11T04:01:58.486Z,14.43
2018-03-11T04:04:02.003Z,12.20
2018-03-11T04:06:05.573Z,17.23
2018-03-11T04:08:09.172Z,16.37
2018-03-11T04:10:12.765Z,12.40
2018-03-11T04:12:16.285Z,14.40
2018-03-11T04:14:19.844Z,13.17
2018-03-11T04:16:24.157Z,10.20
2018-03-11T04:18:28.488Z,10.33
2018-03-11T04:20:32.017Z,11.93
2018-03-11T04:22:35.734Z,13.87
2018-03-11T04:24:39.257Z,13.83
2018-03-11T04:26:42.841Z,13.33
2018-03-11T04:28:47.169Z,10.97
2018-03-11T04:30:51.428Z,10.97
2018-03-11T04:32:55.011Z,12.77
2018-03-11T04:34:58.519Z,12.57
2018-03-11T04:37:02.274Z,10.87
2018-03-11T04:39:05.849Z,7.50
2018-03-11T04:41:09.382Z,8.50
2018-03-11T04:43:12.971Z,7.63
2018-03-11T04:45:16.537Z,8.23
2018-03-11T04:47:21.096Z,10.03
2018-03-11T04:49:24.793Z,7.17
2018-03-11T04:51:28.350Z,6.40
2018-03-11T04:53:34.389Z,4.27
2018-03-11T04:55:39.990Z,4.70
2018-03-11T04:57:43.909Z,6.63
2018-03-11T04:59:47.532Z,7.67
2018-03-11T05:01:51.055Z,6.43
2018-03-11T05:03:54.517Z,5.03
2018-03-11T05:05:58.122Z,5.20
2018-03-11T05:08:01.665Z,6.07
2018-03-11T05:10:05.652Z,5.47
2018-03-11T05:12:09.259Z,6.43
2018-03-11T05:14:12.784Z,10.67
2018-03-11T05:16:16.387Z,12.27
2018-03-11T05:18:20.006Z,8.50
2018-03-11T05:20:23.543Z,11.27
2018-03-11T05:22:27.162Z,9.60
2018-03-11T05:24:33.906Z,6.27
2018-03-11T05:26:38.282Z,8.60
2018-03-11T05:28:41.805Z,12.03
2018-03-11T05:30:45.322Z,7.27
2018-03-11T05:32:49.640Z,7.50
2018-03-11T05:34:53.182Z,5.40
2018-03-11T05:36:56.701Z,6.00
2018-03-11T05:39:01.046Z,5.93
2018-03-11T05:41:04.607Z,6.40
2018-03-11T05:43:08.955Z,7.17
2018-03-11T05:45:12.511Z,6.47
2018-03-11T05:47:21.818Z,6.77
2018-03-11T05:49:26.037Z,8.07
2018-03-11T05:51:29.799Z,7.10
2018-03-11T05:53:33.428Z,7.10
2018-03-11T05:55:37.229Z,7.73
2018-03-11T05:57:41.794Z,6.60
2018-03-11T05:59:45.462Z,6.07
2018-03-11T06:01:49.000Z,7.90
2018-03-11T06:03:52.590Z,6.87
2018-03-11T06:05:56.195Z,7.30
2018-03-11T06:07:59.779Z,7.87
2018-03-11T06:10:04.536Z,5.77
2018-03-11T06:12:09.614Z,6.67
2018-03-11T06:14:13.147Z,4.47
2018-03-11T06:16:16.704Z,5.73
2018-03-11T06:18:20.194Z,6.10
2018-03-11T06:20:24.495Z,6.80
2018-03-11T06:22:28.095Z,5.43
2018-03-11T06:24:31.671Z,6.80
2018-03-11T06:26:35.989Z,5.27
2018-03-11T06:28:39.526Z,7.27
2018-03-11T06:30:43.086Z,7.40
2018-03-11T06:32:46.673Z,6.90
2018-03-11T06:34:50.209Z,9.90
2018-03-11T06:36:54.091Z,9.70
2018-03-11T06:38:57.665Z,10.30
2018-03-11T06:41:01.209Z,10.40
2018-03-11T06:43:06.328Z,9.87
2018-03-11T06:45:09.948Z,10.03
2018-03-11T06:47:14.879Z,9.83
2018-03-11T06:49:24.516Z,9.87
2018-03-11T06:51:28.633Z,10.60
2018-03-11T06:53:32.350Z,10.73
2018-03-11T06:55:35.891Z,11.70
2018-03-11T06:57:40.254Z,10.23
2018-03-11T06:59:43.829Z,11.27
2018-03-11T07:01:49.023Z,11.50
2018-03-11T07:03:52.611Z,10.80
2018-03-11T07:05:58.417Z,12.23
2018-03-11T07:08:02.063Z,13.10
2018-03-11T07:10:06.506Z,13.13
2018-03-11T07:12:12.575Z,14.90
2018-03-11T07:14:16.905Z,13.40
2018-03-11T07:16:20.460Z,14.50
2018-03-11T07:18:23.954Z,16.87
2018-03-11T07:20:27.502Z,16.10
2018-03-11T07:22:31.013Z,19.20
2018-03-11T07:24:34.593Z,14.10
2018-03-11T07:26:38.163Z,20.43
2018-03-11T07:28:42.962Z,18.97
2018-03-11T07:30:46.659Z,18.10
2018-03-11T07:32:50.239Z,18.20
2018-03-11T07:34:53.766Z,20.40
2018-03-11T07:36:58.146Z,21.47
2018-03-11T07:39:01.690Z,18.57
2018-03-11T07:41:06.074Z,17.53
2018-03-11T07:43:10.422Z,17.00
2018-03-11T07:45:14.737Z,21.43
2018-03-11T07:47:20.857Z,20.20
2018-03-11T07:49:26.837Z,18.50
2018-03-11T07:51:31.190Z,17.57
2018-03-11T07:53:34.713Z,11.47
2018-03-11T07:55:42.289Z,20.97
2018-03-11T07:57:46.866Z,18.57
2018-03-11T07:59:50.469Z,18.67
2018-03-11T08:01:54.923Z,18.53
2018-03-11T08:03:58.599Z,10.67
2018-03-11T08:06:02.185Z,17.40
2018-03-11T08:08:05.765Z,11.43
2018-03-11T08:10:09.334Z,16.70
2018-03-11T08:12:12.881Z,17.70
2018-03-11T08:14:17.080Z,20.73
2018-03-11T08:16:20.768Z,12.43
2018-03-11T08:18:25.069Z,12.83
2018-03-11T08:20:28.603Z,14.27
2018-03-11T08:22:32.157Z,11.83
2018-03-11T08:24:36.484Z,10.23
2018-03-11T08:26:40.814Z,10.03
2018-03-11T08:28:44.375Z,10.00
2018-03-11T08:30:47.906Z,16.73
2018-03-11T08:32:51.509Z,17.80
2018-03-11T08:34:55.058Z,20.07
2018-03-11T08:36:59.391Z,21.40
2018-03-11T08:39:03.796Z,14.13
2018-03-11T08:41:07.395Z,11.53
2018-03-11T08:43:10.981Z,22.10
2018-03-11T08:45:14.508Z,19.10
2018-03-11T08:47:19.696Z,22.10
2018-03-11T08:49:24.996Z,14.60
2018-03-11T08:51:28.518Z,19.10
2018-03-11T08:53:32.089Z,11.40
2018-03-11T08:55:35.676Z,15.67
2018-03-11T08:57:39.269Z,17.07
2018-03-11T08:59:42.796Z,14.57
2018-03-11T09:01:46.344Z,9.43
2018-03-11T09:03:50.635Z,16.27
2018-03-11T09:05:54.211Z,8.07
2018-03-11T09:07:57.816Z,9.80
2018-03-11T09:10:01.384Z,14.63
2018-03-11T09:12:04.970Z,8.63
2018-03-11T09:14:08.574Z,11.17
2018-03-11T09:16:12.128Z,14.87
2018-03-11T09:18:15.753Z,10.23
2018-03-11T09:20:19.284Z,13.10
2018-03-11T09:22:22.793Z,19.13
2018-03-11T09:24:26.347Z,21.03
2018-03-11T09:26:29.930Z,18.50
2018-03-11T09:28:33.518Z,20.13
2018-03-11T09:30:37.174Z,18.13
2018-03-11T09:32:40.719Z,16.03
2018-03-11T09:34:44.275Z,17.40
2018-03-11T09:36:47.823Z,20.20
2018-03-11T09:38:51.331Z,11.60
2018-03-11T09:40:54.922Z,13.70
2018-03-11T09:42:58.531Z,15.33
2018-03-11T09:45:02.131Z,12.70
2018-03-11T09:47:05.720Z,10.97
2018-03-11T09:49:09.341Z,8.93
2018-03-11T09:51:12.875Z,11.43
2018-03-11T09:53:17.292Z,12.00
2018-03-11T09:55:21.578Z,7.90
2018-03-11T09:57:25.108Z,10.60
2018-03-11T09:59:29.389Z,8.93
2018-03-11T10:01:32.934Z,13.90
2018-03-11T10:03:36.807Z,11.47
2018-03-11T10:05:41.142Z,11.90
2018-03-11T10:07:44.688Z,12.00
2018-03-11T10:09:48.225Z,13.80
2018-03-11T10:11:51.833Z,15.03
2018-03-11T10:13:55.351Z,11.37
2018-03-11T10:15:58.916Z,14.00
2018-03-11T10:18:02.590Z,13.00
2018-03-11T10:20:06.105Z,14.13
2018-03-11T10:22:09.755Z,14.87
2018-03-11T10:24:13.284Z,12.93
2018-03-11T10:26:17.637Z,13.43
2018-03-11T10:28:21.171Z,10.77
2018-03-11T10:30:24.709Z,10.33
2018-03-11T10:32:28.281Z,11.07
2018-03-11T10:34:32.578Z,12.30
2018-03-11T10:36:36.094Z,12.07
2018-03-11T10:38:40.439Z,11.80
2018-03-11T10:40:44.001Z,9.27
2018-03-11T10:42:47.510Z,9.27
2018-03-11T10:44:51.095Z,14.17
2018-03-11T10:46:54.723Z,13.77
2018-03-11T10:48:58.563Z,11.53
2018-03-11T10:51:04.290Z,9.47
2018-03-11T10:53:08.034Z,11.50
2018-03-11T10:55:12.388Z,8.73
2018-03-11T10:57:15.954Z,12.03
2018-03-11T10:59:19.464Z,9.07
2018-03-11T11:01:23.067Z,8.10
2018-03-11T11:03:28.436Z,9.27
2018-03-11T11:05:31.943Z,9.10
2018-03-11T11:07:35.538Z,12.17
2018-03-11T11:09:39.048Z,11.53
2018-03-11T11:11:42.573Z,9.90
2018-03-11T11:13:46.185Z,10.07
2018-03-11T11:15:49.781Z,8.33
2018-03-11T11:17:53.355Z,8.63
2018-03-11T11:19:57.623Z,8.33
2018-03-11T11:22:01.213Z,8.90
2018-03-11T11:24:04.820Z,10.53
2018-03-11T11:26:08.410Z,8.73
2018-03-11T11:28:11.964Z,8.17
2018-03-11T11:30:16.257Z,9.53
2018-03-11T11:32:20.620Z,8.07
2018-03-11T11:34:24.160Z,8.40
2018-03-11T11:36:28.443Z,10.00
2018-03-11T11:38:32.046Z,8.50
2018-03-11T11:40:40.596Z,10.27
2018-03-11T11:42:45.437Z,10.80
2018-03-11T11:44:51.825Z,15.53
2018-03-11T11:46:57.103Z,12.93
2018-03-11T11:49:01.424Z,10.17
2018-03-11T11:51:05.814Z,11.03
2018-03-11T11:53:09.366Z,11.00
2018-03-11T11:55:13.004Z,10.77
2018-03-11T11:57:16.519Z,7.57
2018-03-11T11:59:20.839Z,7.67
2018-03-11T12:01:24.970Z,10.93
2018-03-11T12:03:28.738Z,8.47
2018-03-11T12:05:32.324Z,7.90
2018-03-11T12:07:35.917Z,11.83
2018-03-11T12:09:39.446Z,10.63
2018-03-11T12:11:46.814Z,8.50
2018-03-11T12:13:51.156Z,8.73
2018-03-11T12:15:55.926Z,9.23
2018-03-11T12:18:00.235Z,9.00
2018-03-11T12:20:04.758Z,8.60
2018-03-11T12:22:08.285Z,8.57
2018-03-11T12:24:12.593Z,10.03
2018-03-11T12:26:16.128Z,9.40
2018-03-11T12:28:19.659Z,8.53
2018-03-11T12:30:23.173Z,8.70
2018-03-11T12:32:26.688Z,7.63
2018-03-11T12:34:36.248Z,9.23
2018-03-11T12:36:40.036Z,8.40
2018-03-11T12:38:43.576Z,10.70
2018-03-11T12:40:52.829Z,8.00
2018-03-11T12:42:56.730Z,8.73
2018-03-11T12:45:00.250Z,7.47
2018-03-11T12:47:04.601Z,8.27
2018-03-11T12:49:08.837Z,10.93
2018-03-11T12:51:17.232Z,9.47
2018-03-11T12:53:21.552Z,11.33
2018-03-11T12:55:26.136Z,9.20
2018-03-11T12:57:31.677Z,8.57
2018-03-11T12:59:35.284Z,8.47
2018-03-11T13:01:38.872Z,7.87
2018-03-11T13:03:42.579Z,9.20
2018-03-11T13:05:46.781Z,9.20
2018-03-11T13:07:50.330Z,7.90
2018-03-11T13:09:53.861Z,7.90
2018-03-11T13:11:57.449Z,8.43
2018-03-11T13:14:05.017Z,8.17
2018-03-11T13:16:09.357Z,9.43
2018-03-11T13:18:12.961Z,10.23
2018-03-11T13:20:28.330Z,8.47
2018-03-11T13:22:32.917Z,9.00
2018-03-11T13:24:36.449Z,9.07
2018-03-11T13:26:40.737Z,8.00
2018-03-11T13:28:50.676Z,8.90
2018-03-11T13:30:54.756Z,10.03
2018-03-11T13:33:10.200Z,8.17
2018-03-11T13:35:13.794Z,9.83
2018-03-11T13:37:17.423Z,9.70
2018-03-11T13:39:32.726Z,8.43
2018-03-11T13:41:36.259Z,11.33
2018-03-11T13:43:41.068Z,8.47
2018-03-11T13:45:57.403Z,9.10
2018-03-11T13:48:01.056Z,9.00
2018-03-11T13:50:06.501Z,7.75
2018-03-11T13:52:22.065Z,9.40
2018-03-11T13:54:25.573Z,9.60
2018-03-11T13:56:29.086Z,9.13
2018-03-11T13:58:56.374Z,9.00
2018-03-11T14:01:08.869Z,9.10
2018-03-11T14:03:22.892Z,8.03
2018-03-11T14:05:36.275Z,8.53
2018-03-11T14:07:49.730Z,8.53
2018-03-11T14:10:03.777Z,7.90
2018-03-11T14:12:17.401Z,8.20
2018-03-11T14:14:37.298Z,8.90
2018-03-11T14:16:51.891Z,8.80
2018-03-11T14:19:06.501Z,8.07
2018-03-11T14:21:20.960Z,9.13
2018-03-11T14:23:39.886Z,8.90
2018-03-11T14:25:52.864Z,7.83
2018-03-11T14:28:08.709Z,8.00
2018-03-11T14:30:29.100Z,8.37
2018-03-11T14:32:43.384Z,8.07
2018-03-11T14:34:57.098Z,8.50
2018-03-11T14:37:11.192Z,7.50
2018-03-11T14:39:26.436Z,8.13
2018-03-11T14:41:42.976Z,8.90
2018-03-11T14:43:54.832Z,8.13
2018-03-11T14:46:09.963Z,7.67
2018-03-11T14:48:21.521Z,8.07
2018-03-11T14:50:32.937Z,7.00
2018-03-11T14:52:50.443Z,7.83
2018-03-11T14:55:09.858Z,7.17
2018-03-11T14:57:27.489Z,7.63
2018-03-11T14:59:44.331Z,6.60
2018-03-11T15:01:59.109Z,7.03
2018-03-11T15:04:15.793Z,6.57
2018-03-11T15:06:30.760Z,6.60
2018-03-11T15:08:46.925Z,6.50
2018-03-11T15:11:01.082Z,6.43
2018-03-11T15:13:15.414Z,5.43
2018-03-11T15:15:28.357Z,5.63
2018-03-11T15:17:41.410Z,5.00
2018-03-11T15:19:54.391Z,5.70
2018-03-11T15:22:06.064Z,4.57
2018-03-11T15:24:20.458Z,5.17
2018-03-11T15:31:28.150Z,5.07
2018-03-11T15:33:54.079Z,4.60
2018-03-11T15:36:11.717Z,4.70
2018-03-11T15:48:02.468Z,4.37
2018-03-11T15:50:16.632Z,4.13
2018-03-11T15:52:28.108Z,4.63
2018-03-11T15:54:40.327Z,4.53
2018-03-11T15:56:53.272Z,4.33
2018-03-11T15:59:08.259Z,4.10
2018-03-11T16:01:21.381Z,4.53
2018-03-11T16:03:35.180Z,5.30
2018-03-11T16:05:49.870Z,5.53
2018-03-11T16:08:02.596Z,5.97
2018-03-11T16:10:16.163Z,5.00
2018-03-11T16:12:30.314Z,5.27
2018-03-11T16:14:43.409Z,5.40
2018-03-11T16:17:01.306Z,4.00
2018-03-11T16:19:21.608Z,5.03
2018-03-11T16:21:35.642Z,5.50
2018-03-11T16:23:49.106Z,4.60
2018-03-11T16:26:03.175Z,5.80
2018-03-11T16:28:14.927Z,5.20
2018-03-11T16:30:29.856Z,4.57
2018-03-11T16:32:47.009Z,6.63
2018-03-11T16:34:53.927Z,5.10
2018-03-11T16:37:01.965Z,5.73
2018-03-11T16:39:10.695Z,6.03
2018-03-11T16:41:20.606Z,6.73
2018-03-11T16:43:31.525Z,4.67
2018-03-11T16:45:46.646Z,6.13
2018-03-11T16:47:56.602Z,4.43
2018-03-11T16:50:09.372Z,5.97
2018-03-11T16:52:26.169Z,4.03
2018-03-11T16:54:40.483Z,4.83
2018-03-11T16:56:57.567Z,5.13
2018-03-11T16:59:10.705Z,4.63
2018-03-11T17:01:26.634Z,4.50
2018-03-11T17:03:39.537Z,4.73
2018-03-11T17:05:54.685Z,4.40
2018-03-11T17:08:05.561Z,4.13
2018-03-11T17:10:19.565Z,4.77
2018-03-11T17:12:33.439Z,4.43
2018-03-11T17:14:52.747Z,5.10
2018-03-11T17:19:27.594Z,4.73
2018-03-11T17:21:39.967Z,4.20
2018-03-11T17:23:52.011Z,4.77
2018-03-11T17:26:03.643Z,4.37
2018-03-11T17:28:18.489Z,4.33
2018-03-11T17:30:31.949Z,4.30
2018-03-11T17:32:46.623Z,5.03
2018-03-11T17:34:59.428Z,4.30
2018-03-11T17:37:05.677Z,4.40
2018-03-11T17:39:09.162Z,4.50
2018-03-11T17:41:19.146Z,4.50
2018-03-11T17:43:32.456Z,4.83
2018-03-11T17:45:37.799Z,4.80
2018-03-11T17:47:50.259Z,4.10
2018-03-11T17:50:01.165Z,4.50
2018-03-11T17:52:09.839Z,4.33
2018-03-11T17:54:18.889Z,4.70
2018-03-11T17:56:28.969Z,4.20
2018-03-11T17:58:35.602Z,4.53
2018-03-11T18:00:50.666Z,6.10
2018-03-11T18:03:06.513Z,6.77
2018-03-11T18:05:19.654Z,5.90
2018-03-11T18:07:28.672Z,5.77
2018-03-11T18:09:33.045Z,5.10
2018-03-11T18:11:45.366Z,4.87
2018-03-11T18:14:03.146Z,5.70
2018-03-11T18:16:08.762Z,8.37
2018-03-11T18:18:27.967Z,6.77
2018-03-11T18:20:55.468Z,16.20
2018-03-11T18:23:10.629Z,8.10
2018-03-11T18:25:16.133Z,10.17
2018-03-11T18:27:20.446Z,9.47
2018-03-11T18:29:23.968Z,7.73
2018-03-11T18:31:27.475Z,8.33
2018-03-11T18:33:31.045Z,7.40
2018-03-11T18:35:35.360Z,7.13
2018-03-11T18:37:38.892Z,5.77
2018-03-11T18:39:42.377Z,5.20
2018-03-11T18:41:45.957Z,6.40
2018-03-11T18:43:49.517Z,6.40
2018-03-11T18:45:53.059Z,5.23
2018-03-11T18:47:56.601Z,6.93
2018-03-11T18:50:00.887Z,6.30
2018-03-11T18:52:04.427Z,6.50
2018-03-11T18:54:08.752Z,6.90
2018-03-11T18:56:13.087Z,5.57
2018-03-11T18:58:16.629Z,5.50
2018-03-11T19:00:20.089Z,6.23
2018-03-11T19:02:23.639Z,6.27
2018-03-11T19:04:28.030Z,6.20
2018-03-11T19:06:31.560Z,5.33
2018-03-11T19:08:35.874Z,4.77
2018-03-11T19:10:39.350Z,5.13
2018-03-11T19:12:43.718Z,5.90
2018-03-11T19:14:47.269Z,6.30
2018-03-11T19:16:51.655Z,5.70
2018-03-11T19:18:55.209Z,5.97
2018-03-11T19:20:58.714Z,6.20
2018-03-11T19:23:02.357Z,7.43
2018-03-11T19:25:05.908Z,7.20
2018-03-11T19:27:09.450Z,5.60
2018-03-11T19:29:13.801Z,6.23
2018-03-11T19:31:17.361Z,7.40
2018-03-11T19:33:20.834Z,7.43
2018-03-11T19:35:24.308Z,7.93
2018-03-11T19:37:33.768Z,9.27
2018-03-11T19:39:37.753Z,7.37
2018-03-11T19:41:41.820Z,7.93
2018-03-11T19:43:45.383Z,7.20
2018-03-11T19:45:49.678Z,7.00
2018-03-11T19:47:53.218Z,6.80
2018-03-11T19:49:56.742Z,7.17
2018-03-11T19:52:00.268Z,6.40
2018-03-11T19:54:03.872Z,7.50
2018-03-11T19:56:07.409Z,7.53
2018-03-11T19:58:11.857Z,6.90
2018-03-11T20:00:15.401Z,6.77
2018-03-11T20:02:19.660Z,6.27
2018-03-11T20:04:23.446Z,7.37
2018-03-11T20:06:27.018Z,7.93
2018-03-11T20:08:31.303Z,9.13
2018-03-11T20:10:34.849Z,8.03
2018-03-11T20:12:38.408Z,7.60
2018-03-11T20:14:41.920Z,6.97
2018-03-11T20:16:47.299Z,6.73
2018-03-11T20:18:51.899Z,7.90
2018-03-11T20:20:55.477Z,6.40
2018-03-11T20:22:59.784Z,5.63
2018-03-11T20:25:05.856Z,6.80
2018-03-11T20:27:09.429Z,7.00
2018-03-11T20:29:12.925Z,6.90
2018-03-11T20:31:16.564Z,6.10
2018-03-11T20:33:20.204Z,5.13
2018-03-11T20:35:24.498Z,5.30
2018-03-11T20:37:28.037Z,6.53
2018-03-11T20:39:32.330Z,6.53
2018-03-11T20:41:36.511Z,6.07
2018-03-11T20:43:40.820Z,5.70
2018-03-11T20:45:44.372Z,5.27
2018-03-11T20:47:47.864Z,5.43
2018-03-11T20:49:52.188Z,4.57
2018-03-11T20:51:55.728Z,4.53
2018-03-11T20:53:59.252Z,4.43
2018-03-11T20:56:03.623Z,4.63
2018-03-11T20:58:07.135Z,5.53
2018-03-11T21:00:10.657Z,8.17
2018-03-11T21:02:14.948Z,6.03
2018-03-11T21:04:18.448Z,5.30
2018-03-11T21:06:22.023Z,4.57
2018-03-11T21:08:25.575Z,4.47
2018-03-11T21:10:29.127Z,4.70
2018-03-11T21:12:33.486Z,4.23
2018-03-11T21:14:37.751Z,4.77
2018-03-11T21:16:41.253Z,5.77
2018-03-11T21:18:44.837Z,7.90
2018-03-11T21:20:48.381Z,7.57
2018-03-11T21:22:52.108Z,7.83
2018-03-11T21:24:55.760Z,5.73
2018-03-11T21:26:59.302Z,5.43
2018-03-11T21:29:02.836Z,5.17
2018-03-11T21:31:06.500Z,5.00
2018-03-11T21:33:09.979Z,5.43
2018-03-11T21:35:13.899Z,6.07
2018-03-11T21:37:17.455Z,6.80
2018-03-11T21:39:21.741Z,5.77
2018-03-11T21:41:25.282Z,5.67
2018-03-11T21:43:28.895Z,5.90
2018-03-11T21:45:32.386Z,4.93
2018-03-11T21:47:35.894Z,4.87
2018-03-11T21:49:39.424Z,4.73
2018-03-11T21:51:42.922Z,8.33
2018-03-11T21:53:46.482Z,6.87
2018-03-11T21:55:50.055Z,8.47
2018-03-11T21:57:53.601Z,8.30
2018-03-11T22:00:01.436Z,6.63
2018-03-11T22:02:05.203Z,5.70
2018-03-11T22:04:09.482Z,5.90
2018-03-11T22:06:13.189Z,4.40
2018-03-11T22:08:16.730Z,5.80
2018-03-11T22:10:24.475Z,5.27
2018-03-11T22:12:28.018Z,4.40
2018-03-11T22:14:32.657Z,6.33
2018-03-11T22:16:36.199Z,4.93
2018-03-11T22:18:40.041Z,4.60
2018-03-11T22:20:44.305Z,6.10
2018-03-11T22:22:48.258Z,5.37
2018-03-11T22:24:51.812Z,4.83
2018-03-11T22:26:55.508Z,5.07
2018-03-11T22:28:59.621Z,5.50
2018-03-11T22:31:03.320Z,4.93
2018-03-11T22:33:07.076Z,5.10
2018-03-11T22:35:10.573Z,4.97
2018-03-11T22:37:15.700Z,6.27
2018-03-11T22:39:19.599Z,5.03
2018-03-11T22:41:24.176Z,4.50
2018-03-11T22:43:28.423Z,4.50
2018-03-11T22:45:32.995Z,4.20
2018-03-11T22:47:37.675Z,4.03
2018-03-11T22:49:41.974Z,3.57
2018-03-11T22:51:46.350Z,3.67
2018-03-11T22:53:49.901Z,3.47
2018-03-11T22:55:54.155Z,3.63
2018-03-11T22:57:57.835Z,4.40
2018-03-11T23:00:04.419Z,4.50
2018-03-11T23:02:08.534Z,3.60
2018-03-11T23:04:12.967Z,4.60
2018-03-11T23:06:18.305Z,3.97
2018-03-11T23:08:22.685Z,4.43
2018-03-11T23:10:26.307Z,3.63
2018-03-11T23:12:31.043Z,3.40
2018-03-11T23:14:34.754Z,3.23
2018-03-11T23:16:38.570Z,3.30
2018-03-11T23:18:54.122Z,4.17
2018-03-11T23:20:57.723Z,3.83
2018-03-11T23:23:01.473Z,4.57
2018-03-11T23:25:05.974Z,6.35
2018-03-11T23:27:10.528Z,3.50
2018-03-11T23:29:14.422Z,3.80
2018-03-11T23:31:19.527Z,4.30
2018-03-11T23:33:24.460Z,4.90
2018-03-11T23:35:27.986Z,5.07
2018-03-11T23:37:31.541Z,5.67
2018-03-11T23:39:36.180Z,6.30
2018-03-11T23:41:39.898Z,6.27
2018-03-11T23:43:43.930Z,5.87
2018-03-11T23:45:48.281Z,5.10
2018-03-11T23:47:52.225Z,5.57
2018-03-11T23:49:55.935Z,5.17
2018-03-11T23:51:59.554Z,4.63
2018-03-11T23:54:03.107Z,4.60
2018-03-11T23:56:07.007Z,4.27
2018-03-11T23:58:10.657Z,3.67
